| time (UTC) | temp C | wind direction | speed KPH | gust KPH | rain 1hr cm | rain 24hr cm | rain mn cm | humidity % | barometer mb |
| 20260507041547 | -17 | 10 | 0.0 | 4.8 | 0.00 | 0.00 | 0.00 | 1014.4 | |
| 20260507040051 | -17 | 9 | 0.0 | 4.8 | 0.00 | 0.00 | 0.00 | 1014.2 | |
| 20260507034544 | -17 | 355 | 0.0 | 4.8 | 0.00 | 0.00 | 0.00 | 1014.1 | |
| 20260507033037 | -17 | 13 | 0.0 | 4.8 | 0.00 | 0.00 | 0.00 | 1014.0 | |
| 20260507031529 | -17 | 13 | 0.0 | 3.2 | 0.00 | 0.00 | 0.00 | 1014.0 | |
| 20260507030030 | -17 | 13 | 0.0 | 4.8 | 0.00 | 0.00 | 0.00 | 1013.9 | |
| 20260507024522 | -17 | 17 | 1.6 | 8.0 | 0.00 | 0.00 | 0.00 | 1013.8 | |
| 20260507023018 | -17 | 13 | 0.0 | 8.0 | 0.00 | 0.00 | 0.00 | 1013.7 | |
| 20260507021516 | -17 | 9 | 0.0 | 4.8 | 0.00 | 0.00 | 0.00 | 1013.7 | |
| 20260507020010 | -17 | 12 | 0.0 | 6.4 | 0.00 | 0.00 | 0.00 | 1013.6 | |
| 20260507014507 | -17 | 17 | 0.0 | 6.4 | 0.00 | 0.00 | 0.00 | 1013.4 | |
| 20260507013001 | -17 | 5 | 0.0 | 3.2 | 0.00 | 0.00 | 0.00 | 1013.4 | |
| 20260507011604 | -17 | 5 | 0.0 | 4.8 | 0.00 | 0.00 | 0.00 | 1013.3 | |
| 20260507010055 | -17 | 9 | 0.0 | 4.8 | 0.00 | 0.00 | 0.00 | 1013.4 | |
| 20260507004551 | -17 | 9 | 0.0 | 4.8 | 0.00 | 0.00 | 0.00 | 1013.3 | |
| 20260507003046 | -17 | 5 | 0.0 | 1.6 | 0.00 | 0.00 | 0.00 | 1013.3 | |
| 20260507001550 | -17 | 5 | 0.0 | 0.0 | 0.00 | 0.00 | 0.00 | 1013.3 | |
| 20260507000040 | -17 | 5 | 0.0 | 1.6 | 0.00 | 0.00 | 0.00 | 1013.3 | |
| 20260506234542 | -17 | 13 | 0.0 | 3.2 | 0.00 | 0.00 | 0.00 | 1013.3 | |
| 20260506233030 | -17 | 360 | 0.0 | 6.4 | 0.00 | 0.00 | 0.00 | 1013.2 | |
| 20260506231528 | -17 | 13 | 0.0 | 6.4 | 0.00 | 0.00 | 0.00 | 1013.2 | |
| 20260506230021 | -17 | 32 | 0.0 | 4.8 | 0.00 | 0.00 | 0.00 | 1013.3 | |
| 20260506224526 | -17 | 18 | 1.6 | 8.0 | 0.00 | 0.00 | 0.00 | 1013.2 | |
| 20260506223014 | -17 | 14 | 0.0 | 4.8 | 0.00 | 0.00 | 0.00 | 1013.1 | |
| 20260506221511 | -17 | 15 | 0.0 | 9.7 | 0.00 | 0.00 | 0.00 | 1013.0 | |
| 20260506220007 | -17 | 35 | 1.6 | 8.0 | 0.00 | 0.00 | 0.00 | 1013.0 | |
| 20260506214503 | -17 | 37 | 3.2 | 12.9 | 0.00 | 0.00 | 0.00 | 1012.9 | |
| 20260506213103 | -17 | 41 | 3.2 | 11.3 | 0.00 | 0.00 | 0.00 | 1012.8 | |
| 20260506211554 | -17 | 11 | 4.8 | 11.3 | 0.00 | 0.00 | 0.00 | 1012.7 | |
| 20260506210100 | -17 | 24 | 1.6 | 14.5 | 0.00 | 0.00 | 0.00 | 1012.5 | |
| 20260506204551 | -17 | 18 | 3.2 | 12.9 | 0.00 | 0.00 | 0.00 | 1012.5 | |
| 20260506203121 | -17 | 13 | 6.4 | 12.9 | 0.00 | 0.00 | 0.00 | 1012.5 | |
| 20260506201539 | -17 | 5 | 4.8 | 12.9 | 0.00 | 0.00 | 0.00 | 1012.4 | |
| 20260506200045 | -17 | 11 | 4.8 | 11.3 | 0.00 | 0.00 | 0.00 | 1012.4 | |
| 20260506194532 | -17 | 14 | 6.4 | 12.9 | 0.00 | 0.00 | 0.00 | 1012.1 | |
| 20260506193028 | -17 | 12 | 3.2 | 14.5 | 0.00 | 0.00 | 0.00 | 1012.0 | |
| 20260506191524 | -17 | 32 | 3.2 | 12.9 | 0.00 | 0.00 | 0.00 | 1011.8 | |
| 20260506190029 | -17 | 29 | 8.0 | 14.5 | 0.00 | 0.00 | 0.00 | 1011.5 | |
| 20260506184516 | -17 | 16 | 4.8 | 12.9 | 0.00 | 0.00 | 0.00 | 1011.3 | |
| 20260506183013 | -17 | 15 | 6.4 | 14.5 | 0.00 | 0.00 | 0.00 | 1011.1 | |
| 20260506181507 | -17 | 17 | 4.8 | 17.7 | 0.00 | 0.00 | 0.00 | 1010.9 | |
| 20260506180005 | -17 | 9 | 6.4 | 14.5 | 0.00 | 0.00 | 0.00 | 1010.7 | |
| 20260506174501 | -17 | 11 | 4.8 | 16.1 | 0.00 | 0.00 | 0.00 | 1010.5 | |
| 20260506173058 | -17 | 14 | 4.8 | 16.1 | 0.00 | 0.00 | 0.00 | 1010.3 | |
| 20260506171559 | -17 | 5 | 4.8 | 12.9 | 0.00 | 0.00 | 0.00 | 1010.2 | |
| 20260506170050 | -17 | 45 | 4.8 | 14.5 | 0.00 | 0.00 | 0.00 | 1010.2 | |
| 20260506164549 | -17 | 25 | 0.0 | 8.0 | 0.00 | 0.00 | 0.00 | 1010.2 | |
| 20260506163056 | -17 | 17 | 0.0 | 8.0 | 0.00 | 0.00 | 0.00 | 1010.1 | |
| 20260506161538 | -17 | 355 | 0.0 | 4.8 | 0.00 | 0.00 | 0.00 | 1010.1 | |
| 20260506160034 | -17 | 32 | 3.2 | 9.7 | 0.00 | 0.00 | 0.00 | 1010.1 | |
| 20260506154535 | -17 | 14 | 6.4 | 11.3 | 0.00 | 0.00 | 0.00 | 1010.1 | |
| 20260506153028 | -17 | 19 | 0.0 | 6.4 | 0.00 | 0.00 | 0.00 | 1010.1 | |
| 20260506151521 | -17 | 16 | 1.6 | 9.7 | 0.00 | 0.00 | 0.00 | 1010.0 | |
| 20260506150017 | -17 | 15 | 4.8 | 19.3 | 0.00 | 0.00 | 0.00 | 1010.0 | |
| 20260506144516 | -17 | 29 | 3.2 | 14.5 | 0.00 | 0.00 | 0.00 | 1009.9 | |
| 20260506143014 | -17 | 20 | 9.7 | 17.7 | 0.00 | 0.00 | 0.00 | 1009.8 | |
| 20260506141506 | -17 | 26 | 8.0 | 17.7 | 0.00 | 0.00 | 0.00 | 1009.8 | |
| 20260506140002 | -17 | 53 | 4.8 | 14.5 | 0.00 | 0.00 | 0.00 | 1009.8 | |
| 20260506134558 | -17 | 348 | 3.2 | 11.3 | 0.00 | 0.00 | 0.00 | 1009.8 | |
| 20260506133054 | -17 | 23 | 3.2 | 11.3 | 0.00 | 0.00 | 0.00 | 1009.8 | |
| 20260506131551 | -17 | 28 | 4.8 | 16.1 | 0.00 | 0.00 | 0.00 | 1009.9 | |
| 20260506130047 | -17 | 25 | 1.6 | 12.9 | 0.00 | 0.00 | 0.00 | 1009.9 | |
| 20260506124546 | -17 | 75 | 3.2 | 12.9 | 0.00 | 0.00 | 0.00 | 1009.9 | |
| 20260506123039 | -17 | 118 | 1.6 | 12.9 | 0.00 | 0.00 | 0.00 | 1009.8 | |
| 20260506121536 | -17 | 348 | 3.2 | 11.3 | 0.00 | 0.00 | 0.00 | 1009.8 | |
| 20260506120032 | -17 | 355 | 3.2 | 14.5 | 0.00 | 0.00 | 0.00 | 1009.8 | |
| 20260506114527 | -17 | 24 | 4.8 | 17.7 | 0.00 | 0.00 | 0.00 | 1009.7 | |
| 20260506113023 | -17 | 355 | 4.8 | 12.9 | 0.00 | 0.00 | 0.00 | 1009.6 | |
| 20260506111526 | -17 | 82 | 1.6 | 12.9 | 0.00 | 0.00 | 0.00 | 1009.5 | |
| 20260506110015 | -17 | 19 | 4.8 | 12.9 | 0.00 | 0.00 | 0.00 | 1009.6 | |
| 20260506104511 | -17 | 355 | 4.8 | 14.5 | 0.00 | 0.00 | 0.00 | 1009.6 | |
| 20260506103006 | -17 | 44 | 3.2 | 14.5 | 0.00 | 0.00 | 0.00 | 1009.4 | |
| 20260506101502 | -17 | 13 | 6.4 | 19.3 | 0.00 | 0.00 | 0.00 | 1009.4 | |
| 20260506100100 | -17 | 16 | 4.8 | 16.1 | 0.00 | 0.00 | 0.00 | 1009.4 | |
| 20260506094559 | -17 | 14 | 6.4 | 22.5 | 0.00 | 0.00 | 0.00 | 1009.3 | |
| 20260506093058 | -17 | 49 | 12.9 | 30.6 | 0.00 | 0.00 | 0.00 | 1009.4 | |
| 20260506091548 | -17 | 24 | 4.8 | 14.5 | 0.00 | 0.00 | 0.00 | 1009.2 | |
| 20260506090054 | -17 | 350 | 6.4 | 14.5 | 0.00 | 0.00 | 0.00 | 1009.1 | |
| 20260506084545 | -17 | 44 | 3.2 | 12.9 | 0.00 | 0.00 | 0.00 | 1009.1 | |
| 20260506083038 | -17 | 36 | 4.8 | 17.7 | 0.00 | 0.00 | 0.00 | 1009.1 | |
| 20260506081537 | -17 | 43 | 4.8 | 20.9 | 0.00 | 0.00 | 0.00 | 1008.9 | |
| 20260506073021 | -17 | 13 | 4.8 | 9.7 | 0.00 | 0.00 | 0.00 | 1008.7 | |
| 20260506071519 | -17 | 34 | 6.4 | 12.9 | 0.00 | 0.00 | 0.00 | 1008.8 | |
| 20260506061601 | -17 | 360 | 4.8 | 12.9 | 0.00 | 0.00 | 0.00 | 1008.5 | |
| 20260506043033 | -17 | 28 | 6.4 | 14.5 | 0.00 | 0.00 | 0.00 | 1008.3 |